Time;durP1;ratioP1;P1;durP2;ratioP2;P2;SDS_P1;SDS_P2;PMS_P1;PMS_P2;Temp;Humidity;BMP_temperature;BMP_pressure;BME280_temperature;BME280_humidity;BME280_pressure;Samples;Min_cycle;Max_cycle;Signal;HPM_P1;HPM_P2
2021/06/24 00:02:05;;;;;;;37.45;16.40;;;;;;;16.45;100.00;98000.97;4978489;28;20096;-80
2021/06/24 00:04:32;;;;;;;32.20;16.33;;;;;;;16.50;100.00;98017.13;5011465;28;20060;-80
2021/06/24 00:06:59;;;;;;;27.48;16.25;;;;;;;16.36;100.00;98011.25;5012125;28;20050;-80
2021/06/24 00:09:27;;;;;;;28.00;16.10;;;;;;;16.32;100.00;98013.06;4994506;28;20049;-80
2021/06/24 00:11:54;;;;;;;25.48;16.88;;;;;;;16.46;100.00;98018.16;4993765;28;20666;-80
2021/06/24 00:14:21;;;;;;;25.65;16.42;;;;;;;16.41;100.00;98018.41;4977084;28;20156;-79
2021/06/24 00:16:47;;;;;;;30.80;16.77;;;;;;;16.47;100.00;98023.28;4992074;28;20054;-80
2021/06/24 00:19:19;;;;;;;32.78;16.17;;;;;;;16.47;100.00;98025.22;4992922;28;20056;-81
2021/06/24 00:21:46;;;;;;;31.02;17.10;;;;;;;16.47;100.00;98023.28;5011034;28;20057;-79
2021/06/24 00:24:12;;;;;;;31.95;17.05;;;;;;;16.48;100.00;98021.34;5041381;28;20059;-81
2021/06/24 00:26:39;;;;;;;33.28;16.15;;;;;;;16.52;100.00;98024.97;4995791;28;20460;-79
2021/06/24 00:29:06;;;;;;;32.10;17.85;;;;;;;16.48;100.00;98013.16;4995366;28;20055;-81
2021/06/24 00:31:32;;;;;;;33.65;17.27;;;;;;;16.44;100.00;98004.06;4994967;28;20048;-81
2021/06/24 00:33:59;;;;;;;36.80;18.13;;;;;;;16.36;100.00;97999.50;5011364;28;20045;-81
2021/06/24 00:36:26;;;;;;;31.60;19.08;;;;;;;16.36;100.00;98004.97;5012243;28;20064;-81
2021/06/24 00:38:52;;;;;;;28.65;18.52;;;;;;;16.29;100.00;97991.88;5014167;28;20429;-81
2021/06/24 00:41:19;;;;;;;34.35;19.25;;;;;;;16.33;100.00;97990.06;5003760;28;20052;-81
2021/06/24 00:43:46;;;;;;;36.38;20.35;;;;;;;16.29;100.00;97994.59;4996727;28;20054;-81
2021/06/24 00:46:13;;;;;;;30.17;19.02;;;;;;;16.21;100.00;97987.31;5000319;28;20065;-82
2021/06/24 00:48:40;;;;;;;32.42;19.27;;;;;;;16.18;100.00;97991.53;4983834;28;20510;-81
2021/06/24 00:51:07;;;;;;;29.65;17.45;;;;;;;16.18;100.00;97985.31;5003349;28;20046;-82
2021/06/24 00:53:34;;;;;;;37.83;17.70;;;;;;;16.11;100.00;97998.72;5001642;28;20054;-81
2021/06/24 00:56:03;;;;;;;32.65;17.83;;;;;;;16.02;100.00;97995.31;4984243;28;20045;-82
2021/06/24 00:58:29;;;;;;;31.75;17.98;;;;;;;16.01;100.00;98001.91;4983303;28;20080;-80
2021/06/24 01:00:58;;;;;;;32.22;18.10;;;;;;;15.96;100.00;97991.19;5001293;28;20045;-82
2021/06/24 01:03:29;;;;;;;29.30;18.23;;;;;;;15.97;100.00;97992.81;5006534;28;20053;-81
2021/06/24 01:06:22;;;;;;;27.98;18.08;;;;;;;15.84;100.00;97975.63;5024255;28;20053;-81
2021/06/24 01:08:48;;;;;;;26.85;17.95;;;;;;;15.90;100.00;97989.81;5000478;23;20070;-81
2021/06/24 01:11:26;;;;;;;27.33;17.80;;;;;;;15.90;100.00;97993.34;4998497;28;20041;-81
2021/06/24 01:13:53;;;;;;;34.08;18.48;;;;;;;15.80;100.00;97988.34;5013416;28;20038;-81
2021/06/24 01:16:20;;;;;;;30.65;18.25;;;;;;;15.78;100.00;97989.81;5014583;28;20044;-79
2021/06/24 01:18:48;;;;;;;32.55;18.75;;;;;;;15.70;100.00;98001.63;5018688;28;20121;-81
2021/06/24 01:21:15;;;;;;;33.67;18.40;;;;;;;15.66;100.00;98004.25;4995498;23;20042;-81
2021/06/24 01:23:43;;;;;;;39.58;19.42;;;;;;;15.66;100.00;98014.38;5033708;28;20438;-81
2021/06/24 01:26:10;;;;;;;29.00;18.10;;;;;;;15.54;100.00;98001.50;5034801;28;20064;-80
2021/06/24 01:28:36;;;;;;;38.53;19.00;;;;;;;15.60;100.00;98024.72;5017291;28;20422;-81
2021/06/24 01:31:04;;;;;;;31.83;19.20;;;;;;;15.53;100.00;98035.41;5035597;28;20042;-80
2021/06/24 01:33:35;;;;;;;37.60;18.65;;;;;;;15.48;100.00;98041.06;5036764;28;20041;-82
2021/06/24 01:36:05;;;;;;;35.67;17.83;;;;;;;15.48;100.00;98041.06;5036502;28;20045;-81
2021/06/24 01:38:32;;;;;;;31.48;18.08;;;;;;;15.44;100.00;98035.44;5036521;28;20049;-82
2021/06/24 01:40:58;;;;;;;33.28;16.92;;;;;;;15.38;100.00;98028.59;5037299;28;20045;-82
2021/06/24 01:43:27;;;;;;;35.10;17.10;;;;;;;15.44;100.00;98040.91;5038371;28;20626;-83
2021/06/24 01:45:57;;;;;;;33.22;16.65;;;;;;;15.41;100.00;98041.56;5051383;28;20128;-80
2021/06/24 01:48:26;;;;;;;36.42;17.48;;;;;;;15.42;100.00;98043.16;5039050;28;20033;-80
2021/06/24 01:50:55;;;;;;;29.33;17.58;;;;;;;15.36;100.00;98052.69;5056496;28;20064;-80
2021/06/24 01:53:21;;;;;;;33.67;17.83;;;;;;;15.37;100.00;98057.03;5030699;28;20129;-84
2021/06/24 01:55:48;;;;;;;32.47;18.05;;;;;;;15.32;100.00;98056.44;5020912;28;20046;-83
2021/06/24 01:58:21;;;;;;;33.95;17.80;;;;;;;15.37;100.00;98064.41;5037631;28;20204;-82
2021/06/24 02:00:49;;;;;;;35.67;17.67;;;;;;;15.40;100.00;98064.53;5038345;28;20037;-83
2021/06/24 02:03:15;;;;;;;29.58;17.80;;;;;;;15.40;100.00;98061.00;5020314;28;20133;-80
2021/06/24 02:05:44;;;;;;;31.42;18.65;;;;;;;15.35;100.00;98066.69;5039372;28;20041;-83
2021/06/24 02:08:13;;;;;;;33.97;18.45;;;;;;;15.29;100.00;98068.81;5020478;28;20041;-81
2021/06/24 02:10:40;;;;;;;36.97;18.77;;;;;;;15.27;100.00;98059.38;5036100;28;20049;-81
2021/06/24 02:13:07;;;;;;;45.60;19.30;;;;;;;15.18;100.00;98058.63;5002598;28;20037;-81
2021/06/24 02:15:34;;;;;;;36.50;19.45;;;;;;;15.09;100.00;98061.44;5018984;28;20050;-80
2021/06/24 02:18:03;;;;;;;46.38;21.70;;;;;;;14.96;100.00;98060.59;5034308;28;20104;-80
2021/06/24 02:20:30;;;;;;;47.05;21.58;;;;;;;14.86;100.00;98063.72;5033599;28;20064;-79
2021/06/24 02:23:00;;;;;;;43.90;22.13;;;;;;;14.76;100.00;98071.47;5035030;28;20065;-80
2021/06/24 02:25:27;;;;;;;44.17;23.00;;;;;;;14.72;100.00;98067.81;5016788;28;20111;-80
2021/06/24 02:27:55;;;;;;;44.25;24.17;;;;;;;14.63;100.00;98070.59;5034516;28;20050;-78
2021/06/24 02:30:22;;;;;;;52.45;25.85;;;;;;;14.56;100.00;98072.22;5016598;28;20041;-80
2021/06/24 02:32:50;;;;;;;45.40;26.08;;;;;;;14.51;100.00;98064.25;5017265;28;20041;-77
2021/06/24 02:35:16;;;;;;;51.38;27.73;;;;;;;14.51;100.00;98073.22;5035010;28;20037;-80
2021/06/24 02:37:44;;;;;;;50.38;28.60;;;;;;;14.43;100.00;98059.69;5017574;28;20464;-80
2021/06/24 02:40:14;;;;;;;50.70;29.42;;;;;;;14.46;100.00;98059.78;5016993;28;20037;-81
2021/06/24 02:42:40;;;;;;;56.65;30.70;;;;;;;14.51;100.00;98045.97;5036106;28;20048;-81
2021/06/24 02:45:09;;;;;;;54.13;29.15;;;;;;;14.45;100.00;98033.69;5017506;28;20053;-79
2021/06/24 02:47:37;;;;;;;53.25;28.83;;;;;;;14.50;100.00;98043.59;5035694;28;20042;-81
2021/06/24 02:50:07;;;;;;;56.15;28.45;;;;;;;14.48;100.00;98045.88;5035230;28;20111;-80
2021/06/24 02:52:34;;;;;;;53.92;28.17;;;;;;;14.50;100.00;98044.41;5035538;28;20065;-81
2021/06/24 02:55:01;;;;;;;57.05;29.05;;;;;;;14.45;100.00;98032.91;5034885;28;20041;-79
2021/06/24 02:57:28;;;;;;;52.70;27.08;;;;;;;14.45;100.00;98032.91;5017345;28;20053;-81
2021/06/24 02:59:55;;;;;;;53.90;27.45;;;;;;;14.40;100.00;98024.91;5017624;28;20419;-81
2021/06/24 03:02:21;;;;;;;48.45;26.45;;;;;;;14.38;100.00;98022.50;5035299;28;20068;-81
2021/06/24 03:04:48;;;;;;;57.22;28.42;;;;;;;14.38;100.00;98027.94;5035339;28;20068;-80
2021/06/24 03:07:15;;;;;;;58.75;28.40;;;;;;;14.29;100.00;98006.19;5017655;28;20060;-80
2021/06/24 03:09:41;;;;;;;55.80;30.25;;;;;;;14.27;100.00;97994.03;5017397;28;20043;-80
2021/06/24 03:12:08;;;;;;;48.65;29.40;;;;;;;14.39;100.00;97993.34;5036393;28;20657;-79
2021/06/24 03:14:34;;;;;;;45.53;28.25;;;;;;;14.47;100.00;97996.03;5035507;28;20403;-80
2021/06/24 03:17:01;;;;;;;53.78;28.75;;;;;;;14.50;100.00;97998.09;5027008;28;20108;-81
2021/06/24 03:19:28;;;;;;;56.53;29.73;;;;;;;14.52;100.00;97989.56;5015415;28;20060;-80
2021/06/24 03:21:54;;;;;;;50.90;28.40;;;;;;;14.59;100.00;97995.28;4998570;28;20502;-79
2021/06/24 03:24:21;;;;;;;52.20;27.67;;;;;;;14.54;100.00;97984.59;5016734;28;20045;-81
2021/06/24 03:26:47;;;;;;;52.38;28.90;;;;;;;14.61;100.00;97984.84;5017173;28;20560;-80
2021/06/24 03:29:14;;;;;;;52.60;29.23;;;;;;;14.63;100.00;97975.22;5016130;28;20046;-81
2021/06/24 03:31:41;;;;;;;50.92;28.35;;;;;;;14.68;100.00;97985.94;5016349;28;20096;-80
2021/06/24 03:34:07;;;;;;;45.15;26.42;;;;;;;14.66;100.00;97995.56;4998996;28;20088;-80
2021/06/24 03:36:34;;;;;;;46.30;27.27;;;;;;;14.70;100.00;97997.28;5016626;28;20041;-81
2021/06/24 03:39:00;;;;;;;44.75;25.52;;;;;;;14.70;100.00;98008.19;5016031;28;20057;-80
2021/06/24 03:41:27;;;;;;;52.78;27.20;;;;;;;14.72;100.00;98005.94;5015936;28;20049;-79
2021/06/24 03:43:55;;;;;;;50.00;26.60;;;;;;;14.73;100.00;97999.34;5015462;28;20042;-82
2021/06/24 03:46:22;;;;;;;47.08;25.38;;;;;;;14.76;100.00;97997.91;5024280;28;20041;-81
2021/06/24 03:48:51;;;;;;;50.97;26.65;;;;;;;14.75;100.00;97991.63;5000329;28;20368;-79
2021/06/24 03:51:18;;;;;;;38.65;24.83;;;;;;;14.74;100.00;97995.47;5034971;28;20037;-80
2021/06/24 03:53:44;;;;;;;42.58;25.52;;;;;;;14.78;100.00;97998.34;5016945;28;20049;-81
2021/06/24 03:56:13;;;;;;;51.67;25.70;;;;;;;14.70;100.00;97989.13;5016607;28;20046;-82
2021/06/24 03:58:40;;;;;;;51.17;25.13;;;;;;;14.73;100.00;97999.34;5016626;28;20057;-81
2021/06/24 04:01:07;;;;;;;44.47;25.85;;;;;;;14.78;100.00;97999.16;5034555;28;20041;-79
2021/06/24 04:03:34;;;;;;;46.03;25.83;;;;;;;14.72;100.00;97983.31;5036186;28;20482;-81
2021/06/24 04:06:00;;;;;;;46.05;26.02;;;;;;;14.67;100.00;97987.06;5037575;28;20051;-81
2021/06/24 04:08:27;;;;;;;44.72;25.50;;;;;;;14.69;100.00;97984.78;5019341;28;20168;-80
2021/06/24 04:11:05;;;;;;;48.58;25.83;;;;;;;14.73;100.00;97979.47;5037821;28;20033;-83
2021/06/24 04:13:35;;;;;;;48.60;26.77;;;;;;;14.78;100.00;97998.34;5022052;28;20266;-83
2021/06/24 04:16:08;;;;;;;45.95;26.30;;;;;;;14.70;100.00;98010.91;5042391;28;20512;-83
2021/06/24 04:18:35;;;;;;;45.45;26.23;;;;;;;14.67;100.00;98018.94;5020975;28;20114;-83
2021/06/24 04:21:02;;;;;;;49.17;26.02;;;;;;;14.68;100.00;98018.63;5021785;28;20041;-83
2021/06/24 04:23:29;;;;;;;41.92;26.73;;;;;;;14.67;100.00;98019.75;5026304;28;20112;-80
2021/06/24 04:25:57;;;;;;;57.13;27.90;;;;;;;14.66;100.00;98015.41;5029588;28;20045;-83
2021/06/24 04:28:23;;;;;;;45.25;26.63;;;;;;;14.74;100.00;98009.09;5044951;28;20045;-83
2021/06/24 04:30:50;;;;;;;46.97;26.33;;;;;;;14.81;100.00;97998.47;5030503;28;20113;-83
2021/06/24 04:33:16;;;;;;;49.22;26.48;;;;;;;14.82;100.00;97989.16;5052712;28;20057;-83
2021/06/24 04:35:43;;;;;;;40.03;25.58;;;;;;;14.78;100.00;97992.91;5036269;28;20101;-85
2021/06/24 04:38:10;;;;;;;42.88;26.73;;;;;;;14.79;100.00;97995.28;5054415;28;20065;-86
2021/06/24 04:40:36;;;;;;;44.60;25.35;;;;;;;14.76;100.00;98004.13;5019445;28;20049;-83
2021/06/24 04:43:03;;;;;;;47.17;26.23;;;;;;;14.85;100.00;98013.03;5035972;28;20055;-83
2021/06/24 04:45:30;;;;;;;46.03;27.45;;;;;;;14.81;100.00;98017.53;5035197;28;20033;-83
2021/06/24 04:47:58;;;;;;;42.45;25.73;;;;;;;14.83;100.00;98009.84;5054011;28;20084;-83
2021/06/24 04:50:27;;;;;;;49.58;26.83;;;;;;;14.85;100.00;98015.75;5053017;28;20041;-83
2021/06/24 04:52:54;;;;;;;44.95;27.38;;;;;;;14.90;100.00;98028.38;5046614;28;20052;-84
2021/06/24 04:55:21;;;;;;;51.40;27.27;;;;;;;14.89;100.00;98018.63;5035011;28;20107;-83
2021/06/24 04:57:48;;;;;;;51.10;27.30;;;;;;;14.84;100.00;98010.66;5036210;28;20068;-83
2021/06/24 05:00:19;;;;;;;45.30;27.27;;;;;;;15.02;100.00;98016.75;5035248;28;20068;-84
2021/06/24 05:02:45;;;;;;;41.45;26.85;;;;;;;15.16;100.00;98020.00;5017099;28;20044;-82
2021/06/24 05:05:12;;;;;;;45.95;28.30;;;;;;;15.20;100.00;98029.88;5017244;28;20042;-83
2021/06/24 05:07:39;;;;;;;44.05;26.02;;;;;;;15.28;100.00;98034.47;5035452;28;20548;-83
2021/06/24 05:10:09;;;;;;;50.75;24.60;;;;;;;15.09;100.00;98025.19;5034386;28;20106;-85
2021/06/24 05:12:36;;;;;;;46.90;24.73;;;;;;;15.06;100.00;98023.94;5015421;28;20069;-86
2021/06/24 05:15:04;;;;;;;38.42;24.00;;;;;;;15.02;100.00;98003.13;5035836;28;20101;-86
2021/06/24 05:17:31;;;;;;;37.65;22.30;;;;;;;15.35;100.00;98032.00;5016985;28;20065;-85
2021/06/24 05:19:58;;;;;;;37.95;23.27;;;;;;;15.41;100.00;98030.66;5014739;28;20103;-86
2021/06/24 05:22:26;;;;;;;50.10;23.60;;;;;;;15.40;100.00;98036.44;5016422;28;20110;-86
2021/06/24 05:24:53;;;;;;;42.90;24.02;;;;;;;15.18;100.00;98025.91;5016219;28;20148;-84
2021/06/24 05:27:20;;;;;;;45.03;23.83;;;;;;;15.30;100.00;98034.94;5035081;28;20052;-84
2021/06/24 05:29:48;;;;;;;40.83;25.25;;;;;;;15.33;100.00;98047.13;5015166;28;20132;-86
2021/06/24 05:32:14;;;;;;;42.75;24.45;;;;;;;15.24;100.00;98043.66;5015133;28;20045;-85
2021/06/24 05:34:41;;;;;;;40.33;23.75;;;;;;;15.27;100.00;98037.53;5015020;28;20052;-85
2021/06/24 05:37:08;;;;;;;42.33;23.42;;;;;;;15.19;100.00;98027.50;5015027;28;20038;-87
2021/06/24 05:39:35;;;;;;;38.58;23.30;;;;;;;15.30;100.00;98037.69;5014682;28;20053;-86
2021/06/24 05:42:02;;;;;;;41.78;23.08;;;;;;;15.36;100.00;98033.59;4999248;28;20050;-86
2021/06/24 05:44:31;;;;;;;41.03;22.27;;;;;;;15.39;100.00;98032.13;5015227;28;20041;-85
2021/06/24 05:46:57;;;;;;;38.15;21.83;;;;;;;15.42;100.00;98024.06;5016547;28;20072;-85
2021/06/24 05:49:24;;;;;;;37.45;21.08;;;;;;;15.57;100.00;98028.13;5033887;28;20520;-84
2021/06/24 05:51:51;;;;;;;36.67;22.42;;;;;;;15.42;100.00;98015.09;5015971;28;20045;-85
2021/06/24 05:54:18;;;;;;;40.50;23.02;;;;;;;15.51;100.00;98022.06;5032697;28;20513;-85
2021/06/24 05:56:44;;;;;;;36.15;22.88;;;;;;;15.63;100.00;98025.97;4999647;28;20046;-85
2021/06/24 05:59:11;;;;;;;34.97;22.35;;;;;;;15.53;100.00;98035.41;5000239;28;20049;-85
2021/06/24 06:01:42;;;;;;;40.45;24.50;;;;;;;15.53;100.00;98024.47;5015356;28;20482;-86
2021/06/24 06:04:10;;;;;;;42.55;26.67;;;;;;;15.60;100.00;98024.72;5000251;28;20046;-85
2021/06/24 06:06:38;;;;;;;45.75;26.35;;;;;;;15.61;100.00;98020.84;5017113;28;20045;-86
2021/06/24 06:09:06;;;;;;;52.28;28.25;;;;;;;15.73;100.00;98017.34;5034678;28;20050;-86
2021/06/24 06:11:33;;;;;;;42.08;27.52;;;;;;;15.75;100.00;98017.78;5036548;28;20448;-86
2021/06/24 06:13:59;;;;;;;47.05;28.70;;;;;;;15.83;100.00;98020.44;5022567;28;20049;-85
2021/06/24 06:16:27;;;;;;;40.65;26.92;;;;;;;15.86;100.00;98016.22;5017884;28;20060;-85
2021/06/24 06:18:56;;;;;;;43.63;26.25;;;;;;;15.77;100.00;98018.28;5032453;28;20053;-85
2021/06/24 06:21:23;;;;;;;41.47;26.25;;;;;;;15.65;100.00;98020.97;5032165;28;20160;-84
2021/06/24 06:23:50;;;;;;;41.95;25.48;;;;;;;15.57;100.00;98011.72;5032046;28;20409;-84
2021/06/24 06:26:17;;;;;;;45.78;26.85;;;;;;;15.61;100.00;98009.13;5014845;28;20049;-85
2021/06/24 06:28:43;;;;;;;37.47;27.17;;;;;;;15.74;100.00;98011.56;5032025;28;20046;-85
2021/06/24 06:31:11;;;;;;;43.67;27.60;;;;;;;15.73;100.00;98011.88;5019181;28;20110;-84
2021/06/24 06:33:41;;;;;;;39.05;25.05;;;;;;;15.63;100.00;98001.41;5029777;28;20042;-85
2021/06/24 06:36:11;;;;;;;39.65;26.35;;;;;;;15.81;100.00;98022.72;5046443;28;20037;-84
2021/06/24 06:38:38;;;;;;;47.50;26.80;;;;;;;15.73;100.00;98012.69;5030009;28;20045;-84
2021/06/24 06:41:05;;;;;;;49.10;27.55;;;;;;;15.58;100.00;98019.59;5028306;28;20033;-84
2021/06/24 06:43:32;;;;;;;42.78;27.48;;;;;;;15.81;100.00;98036.38;5003536;28;20418;-85
2021/06/24 06:45:58;;;;;;;52.47;30.50;;;;;;;15.65;100.00;98027.22;5019776;28;20087;-85
2021/06/24 06:48:25;;;;;;;49.67;30.63;;;;;;;15.61;100.00;98026.31;5036826;28;20077;-84
2021/06/24 06:50:52;;;;;;;49.30;31.30;;;;;;;15.62;100.00;98027.09;5019045;28;20037;-86
2021/06/24 06:53:18;;;;;;;50.13;32.70;;;;;;;15.50;100.00;98016.97;5001313;28;20049;-86
2021/06/24 06:55:47;;;;;;;55.75;31.15;;;;;;;15.67;100.00;98041.31;5018213;28;20045;-85
2021/06/24 06:58:16;;;;;;;49.17;32.83;;;;;;;15.69;100.00;98043.72;5017768;28;20107;-85
2021/06/24 07:00:44;;;;;;;58.00;32.13;;;;;;;15.56;100.00;98043.69;5002480;28;20516;-87
2021/06/24 07:03:11;;;;;;;52.83;32.97;;;;;;;15.36;100.00;98032.78;5019452;28;20050;-85
2021/06/24 07:05:38;;;;;;;64.03;35.08;;;;;;;15.48;100.00;98049.25;5037079;28;20049;-85
2021/06/24 07:08:05;;;;;;;58.40;34.08;;;;;;;15.32;100.00;98019.03;5018590;28;20045;-85
2021/06/24 07:10:31;;;;;;;58.72;33.85;;;;;;;15.62;100.00;98052.47;5015174;23;20056;-81
2021/06/24 07:12:58;;;;;;;55.25;34.47;;;;;;;15.58;100.00;98046.91;4955518;28;20046;-81
2021/06/24 07:15:28;;;;;;;58.55;33.55;;;;;;;15.61;100.00;98052.81;4988228;28;20054;-79
2021/06/24 07:17:55;;;;;;;62.10;34.97;;;;;;;15.37;100.00;98050.75;4955510;28;20046;-81
2021/06/24 07:20:22;;;;;;;58.33;35.30;;;;;;;15.40;100.00;98053.63;4986813;28;20053;-82
2021/06/24 07:22:49;;;;;;;66.90;36.80;;;;;;;15.46;100.00;98046.03;4987035;28;20476;-82
2021/06/24 07:25:18;;;;;;;61.78;34.85;;;;;;;15.49;100.00;98043.44;4970281;28;20077;-79
2021/06/24 07:27:47;;;;;;;59.35;34.97;;;;;;;15.54;100.00;98042.41;4988465;28;20454;-80
2021/06/24 07:30:14;;;;;;;52.05;31.58;;;;;;;15.56;100.00;98051.88;4972088;28;20821;-83
2021/06/24 07:32:44;;;;;;;51.90;32.17;;;;;;;15.55;100.00;98042.09;4971549;28;20415;-81
2021/06/24 07:35:11;;;;;;;56.95;32.60;;;;;;;15.52;100.00;98036.50;4986989;28;20451;-81
2021/06/24 07:37:38;;;;;;;56.45;33.42;;;;;;;15.61;100.00;98042.69;4989257;28;20065;-82
2021/06/24 07:40:06;;;;;;;57.78;33.10;;;;;;;15.63;100.00;98032.22;4969380;28;20148;-81
2021/06/24 07:42:35;;;;;;;52.13;32.80;;;;;;;15.78;100.00;98033.50;4970292;28;20410;-82
2021/06/24 07:45:03;;;;;;;61.67;32.70;;;;;;;15.92;100.00;98039.44;4968069;28;20050;-83
2021/06/24 07:47:29;;;;;;;56.85;33.10;;;;;;;15.97;100.00;98033.78;4969822;28;20065;-84
2021/06/24 07:49:56;;;;;;;59.25;34.15;;;;;;;16.04;100.00;98021.13;4987335;28;20042;-82
2021/06/24 07:52:23;;;;;;;58.63;34.47;;;;;;;16.04;100.00;98025.81;4989522;28;20112;-82
2021/06/24 07:54:49;;;;;;;67.30;37.15;;;;;;;16.03;100.00;98025.00;4986581;28;20114;-82
2021/06/24 07:57:19;;;;;;;71.53;38.53;;;;;;;16.28;100.00;98025.00;4986532;28;20116;-82
2021/06/24 07:59:46;;;;;;;56.33;35.45;;;;;;;16.30;100.00;98028.19;4969143;28;20050;-80
2021/06/24 08:02:13;;;;;;;56.17;32.85;;;;;;;16.39;100.00;98028.88;4987570;28;20632;-82
2021/06/24 08:04:42;;;;;;;61.90;34.67;;;;;;;16.41;100.00;98024.66;4985520;28;20117;-82
2021/06/24 08:07:10;;;;;;;61.80;34.28;;;;;;;16.52;100.00;98023.06;4986626;28;20042;-81
2021/06/24 08:09:37;;;;;;;52.25;31.80;;;;;;;16.61;100.00;98012.81;4986594;28;20125;-80
2021/06/24 08:12:04;;;;;;;51.78;31.52;;;;;;;16.71;100.00;98017.81;4986247;28;20156;-80
2021/06/24 08:14:31;;;;;;;51.40;32.15;;;;;;;16.77;100.00;98019.19;4986089;28;20046;-80
2021/06/24 08:16:58;;;;;;;45.58;30.95;;;;;;;16.77;100.00;98021.09;4969431;28;20419;-82
2021/06/24 08:19:24;;;;;;;51.55;30.70;;;;;;;16.73;100.00;98023.72;4986963;28;20073;-80
2021/06/24 08:21:57;;;;;;;46.00;29.10;;;;;;;16.67;100.00;98019.63;4987347;28;20045;-80
2021/06/24 08:24:25;;;;;;;47.53;30.13;;;;;;;16.79;100.00;98016.09;4953947;28;20073;-80
2021/06/24 08:26:54;;;;;;;42.67;28.50;;;;;;;17.00;100.00;98015.91;4969984;28;20057;-79
2021/06/24 08:29:20;;;;;;;37.30;25.42;;;;;;;17.04;100.00;98009.38;4991404;28;20046;-81
2021/06/24 08:31:47;;;;;;;38.17;25.90;;;;;;;16.62;100.00;98006.19;4990453;28;20046;-79
2021/06/24 08:34:14;;;;;;;40.22;27.23;;;;;;;16.91;100.00;98016.03;4972206;28;20358;-81
2021/06/24 08:36:40;;;;;;;43.15;27.65;;;;;;;16.98;100.00;98023.66;4986232;28;20046;-79
2021/06/24 08:39:07;;;;;;;40.22;25.58;;;;;;;16.99;100.00;98012.38;4989814;28;20050;-80
2021/06/24 08:41:35;;;;;;;39.22;26.15;;;;;;;16.90;100.00;98013.66;5000264;28;20053;-80
2021/06/24 08:44:04;;;;;;;36.67;25.52;;;;;;;17.09;100.00;98017.34;4989387;28;20104;-81
2021/06/24 08:46:31;;;;;;;35.13;24.40;;;;;;;17.09;100.00;98011.88;4970708;28;20050;-80
2021/06/24 08:49:00;;;;;;;36.65;24.92;;;;;;;17.16;100.00;98016.78;4992748;28;20515;-79
2021/06/24 08:51:27;;;;;;;36.63;24.10;;;;;;;17.20;100.00;98025.88;4987060;28;20197;-80
2021/06/24 08:53:55;;;;;;;34.47;23.58;;;;;;;17.31;100.00;98022.28;4986553;28;20050;-80
2021/06/24 08:56:21;;;;;;;37.78;24.60;;;;;;;17.41;100.00;98021.78;4989286;28;20038;-80
2021/06/24 08:58:52;;;;;;;35.67;23.58;;;;;;;17.50;100.00;98023.56;4970299;28;20423;-80
2021/06/24 09:01:19;;;;;;;35.25;22.73;;;;;;;17.55;100.00;98024.13;4988411;28;20122;-79
2021/06/24 09:03:49;;;;;;;33.80;23.83;;;;;;;17.63;100.00;98014.16;4954131;28;20515;-81
2021/06/24 09:06:17;;;;;;;39.10;24.70;;;;;;;17.50;100.00;98018.09;4971920;28;20046;-80
2021/06/24 09:08:53;;;;;;;37.17;26.25;;;;;;;17.28;100.00;98022.97;4972699;28;20051;-79
2021/06/24 09:11:25;;;;;;;37.15;24.58;;;;;;;17.29;100.00;98032.78;4973207;28;20049;-80
2021/06/24 09:14:02;;;;;;;39.92;24.23;;;;;;;17.27;100.00;98040.53;4989870;28;20042;-80
2021/06/24 09:16:35;;;;;;;41.75;25.52;;;;;;;17.20;100.00;98034.06;4973854;28;20115;-80
2021/06/24 09:19:22;;;;;;;37.65;26.33;;;;;;;17.02;100.00;98040.97;4973981;28;20109;-81
2021/06/24 09:21:59;;;;;;;39.78;25.80;;;;;;;16.98;100.00;98038.13;4974643;28;20408;-83
2021/06/24 09:24:28;;;;;;;44.13;26.63;;;;;;;16.93;100.00;98038.38;4974611;28;20042;-81
2021/06/24 09:26:57;;;;;;;39.95;27.42;;;;;;;16.87;100.00;98045.25;4960081;28;20058;-84
2021/06/24 09:29:24;;;;;;;47.05;27.95;;;;;;;16.77;100.00;98051.19;4995925;28;20113;-80
2021/06/24 09:31:53;;;;;;;42.33;27.52;;;;;;;16.92;100.00;98042.25;4978064;28;20545;-80
2021/06/24 09:34:22;;;;;;;41.55;27.95;;;;;;;16.92;100.00;98039.53;4994184;28;20070;-80
2021/06/24 09:36:51;;;;;;;39.92;27.50;;;;;;;17.09;100.00;98041.97;4994111;28;20088;-80
2021/06/24 09:39:18;;;;;;;39.22;26.83;;;;;;;17.16;100.00;98039.44;4992745;28;20133;-80
2021/06/24 09:42:07;;;;;;;40.50;27.50;;;;;;;17.14;100.00;98035.44;4977219;28;20050;-81
2021/06/24 09:44:36;;;;;;;45.50;28.25;;;;;;;16.99;100.00;98047.94;4973933;28;20483;-81
2021/06/24 09:47:29;;;;;;;38.47;26.50;;;;;;;17.08;100.00;98051.34;4978060;28;20090;-81
2021/06/24 09:50:09;;;;;;;34.88;24.98;;;;;;;17.02;100.00;98051.91;4975996;28;20046;-81
2021/06/24 09:52:36;;;;;;;41.20;26.02;;;;;;;16.99;100.00;98050.66;4959788;28;20042;-80
2021/06/24 09:55:06;;;;;;;35.75;25.67;;;;;;;17.14;100.00;98041.72;4975415;28;20050;-80
2021/06/24 09:57:33;;;;;;;37.97;26.33;;;;;;;17.21;100.00;98058.38;4977123;28;20371;-81
2021/06/24 10:00:22;;;;;;;35.88;26.05;;;;;;;17.12;100.00;98048.69;4993668;28;20139;-81
2021/06/24 10:03:06;;;;;;;36.05;26.50;;;;;;;17.02;100.00;98047.25;4977043;28;20580;-80
2021/06/24 10:05:34;;;;;;;37.40;26.15;;;;;;;16.99;100.00;98055.34;4946648;28;20042;-82
2021/06/24 10:08:03;;;;;;;39.15;25.40;;;;;;;16.96;100.00;98051.34;4997835;28;20043;-81
2021/06/24 10:10:29;;;;;;;36.08;25.63;;;;;;;16.95;100.00;98055.25;4998657;28;20042;-81
2021/06/24 10:12:56;;;;;;;37.22;26.23;;;;;;;16.93;100.00;98054.00;4999152;28;20042;-82
2021/06/24 10:15:24;;;;;;;39.40;26.08;;;;;;;16.99;100.00;98049.88;5000385;28;20081;-84
2021/06/24 10:17:54;;;;;;;31.30;24.35;;;;;;;17.07;100.00;98054.41;5002211;28;20352;-81
2021/06/24 10:20:22;;;;;;;37.05;26.00;;;;;;;17.11;100.00;98056.09;5000746;28;20109;-83
2021/06/24 10:22:58;;;;;;;33.47;24.88;;;;;;;17.01;100.00;98050.34;5001328;28;20096;-83
2021/06/24 10:25:25;;;;;;;33.63;25.25;;;;;;;16.93;100.00;98052.03;4981613;28;20072;-83
2021/06/24 10:27:55;;;;;;;37.15;27.00;;;;;;;16.89;100.00;98037.47;4999019;28;20042;-80
2021/06/24 10:30:24;;;;;;;43.35;30.52;;;;;;;16.87;100.00;98047.97;4996235;28;20142;-81
2021/06/24 10:33:04;;;;;;;43.67;30.60;;;;;;;16.96;100.00;98042.34;4980830;28;20538;-82
2021/06/24 10:35:33;;;;;;;48.38;31.02;;;;;;;17.00;100.00;98046.00;4999051;28;20493;-82
2021/06/24 10:38:01;;;;;;;42.13;29.60;;;;;;;17.03;100.00;98040.63;4985137;28;20043;-83
2021/06/24 10:40:37;;;;;;;47.25;31.33;;;;;;;16.93;100.00;98038.38;4987242;28;20498;-82
2021/06/24 10:43:06;;;;;;;43.05;31.77;;;;;;;16.90;100.00;98049.22;5003622;28;20042;-82
2021/06/24 10:45:34;;;;;;;50.25;33.13;;;;;;;16.95;100.00;98038.03;5000615;28;20149;-83
2021/06/24 10:48:22;;;;;;;47.75;32.20;;;;;;;16.99;100.00;98042.47;4970123;28;20053;-83
2021/06/24 10:51:00;;;;;;;46.90;33.15;;;;;;;17.13;100.00;98042.09;5001653;28;20106;-82
2021/06/24 10:53:26;;;;;;;44.97;32.33;;;;;;;17.17;100.00;98049.25;5002083;28;20065;-80
2021/06/24 10:55:53;;;;;;;41.90;32.45;;;;;;;17.20;100.00;98048.56;5003174;28;20046;-82
2021/06/24 10:58:20;;;;;;;45.75;32.45;;;;;;;17.15;100.00;98050.72;5001342;28;20566;-81
2021/06/24 11:00:47;;;;;;;40.03;31.55;;;;;;;17.17;100.00;98051.19;5001705;28;20484;-82
2021/06/24 11:03:40;;;;;;;41.22;31.02;;;;;;;17.20;100.00;98047.75;4999679;28;20294;-80
2021/06/24 11:06:15;;;;;;;41.85;31.73;;;;;;;17.21;100.00;98039.22;4998040;28;20046;-82
2021/06/24 11:08:44;;;;;;;47.30;30.73;;;;;;;17.34;100.00;98040.72;4998177;28;20078;-81
2021/06/24 11:11:16;;;;;;;44.67;30.73;;;;;;;17.29;100.00;98046.44;4998619;28;20046;-83
2021/06/24 11:13:48;;;;;;;41.45;28.45;;;;;;;17.38;100.00;98044.38;4979109;28;20079;-82
2021/06/24 11:16:20;;;;;;;43.97;29.05;;;;;;;17.63;100.00;98036.84;4998615;28;20490;-81